Time;durP1;ratioP1;P1;durP2;ratioP2;P2;SDS_P1;SDS_P2;PMS_P1;PMS_P2;Temp;Humidity;BMP_temperature;BMP_pressure;BME280_temperature;BME280_humidity;BME280_pressure;Samples;Min_cycle;Max_cycle;Signal;HPM_P1;HPM_P2
2022/02/24 00:00:33;;;;;;;2.03;1.85;;;;;;;4.52;62.36;96791.47;5095562;28;20017;-66
2022/02/24 00:02:59;;;;;;;1.70;1.60;;;;;;;4.55;62.58;96796.63;5095558;28;20031;-67
2022/02/24 00:05:25;;;;;;;1.65;1.55;;;;;;;4.55;62.74;96792.28;5095547;28;20053;-66
2022/02/24 00:07:51;;;;;;;1.88;1.52;;;;;;;4.47;62.32;96777.69;5095432;28;20016;-67
2022/02/24 00:10:17;;;;;;;2.53;1.70;;;;;;;4.54;62.65;96779.31;5095137;28;20052;-67
2022/02/24 00:12:44;;;;;;;3.88;1.83;;;;;;;4.49;62.66;96781.97;5095231;28;20436;-67
2022/02/24 00:15:10;;;;;;;2.42;1.60;;;;;;;4.49;62.82;96781.13;5095231;28;20024;-67
2022/02/24 00:17:36;;;;;;;1.60;1.50;;;;;;;4.46;62.96;96774.25;5095204;28;20408;-66
2022/02/24 00:20:03;;;;;;;2.00;1.63;;;;;;;4.34;62.92;96769.16;5095061;28;20371;-67
2022/02/24 00:22:31;;;;;;;1.75;1.65;;;;;;;4.32;63.18;96771.78;5095154;28;20024;-67
2022/02/24 00:24:57;;;;;;;2.40;1.70;;;;;;;4.33;63.10;96767.47;5095133;28;20032;-66
2022/02/24 00:27:22;;;;;;;1.70;1.60;;;;;;;4.31;63.05;96764.88;5095016;28;20424;-66
2022/02/24 00:29:48;;;;;;;3.85;1.80;;;;;;;4.29;62.72;96772.66;5095082;28;20020;-67
2022/02/24 00:32:13;;;;;;;2.67;2.15;;;;;;;4.23;63.27;96767.53;5094943;28;20025;-66
2022/02/24 00:34:39;;;;;;;1.85;1.75;;;;;;;4.23;63.44;96766.66;5094807;28;20062;-66
2022/02/24 00:37:04;;;;;;;2.58;2.30;;;;;;;4.21;63.67;96764.09;5094836;28;20045;-66
2022/02/24 00:39:30;;;;;;;2.47;2.20;;;;;;;4.18;63.50;96771.88;5094817;28;20470;-67
2022/02/24 00:41:56;;;;;;;2.17;1.98;;;;;;;4.07;63.85;96766.81;5094808;28;20038;-66
2022/02/24 00:44:22;;;;;;;3.03;1.80;;;;;;;4.10;63.49;96761.63;5094607;28;20016;-66
2022/02/24 00:46:48;;;;;;;2.30;1.88;;;;;;;4.10;63.93;96761.63;5094621;28;20020;-66
2022/02/24 00:49:13;;;;;;;2.17;1.98;;;;;;;4.12;63.68;96765.03;5094582;28;20028;-66
2022/02/24 00:51:39;;;;;;;6.10;3.65;;;;;;;4.15;63.62;96765.00;5094526;28;20032;-66
2022/02/24 00:54:04;;;;;;;2.55;2.28;;;;;;;4.20;63.95;96771.88;5094496;28;20568;-66
2022/02/24 00:56:31;;;;;;;2.63;2.17;;;;;;;4.23;63.62;96764.94;5076393;28;20016;-65
2022/02/24 00:58:56;;;;;;;2.45;2.25;;;;;;;4.25;64.15;96767.53;5094460;28;20411;-66
2022/02/24 01:01:22;;;;;;;2.30;2.08;;;;;;;4.30;63.95;96760.56;5094377;28;20028;-66
2022/02/24 01:03:48;;;;;;;4.22;2.00;;;;;;;4.25;64.83;96755.41;5094294;28;20020;-67
2022/02/24 01:06:14;;;;;;;2.08;1.88;;;;;;;4.23;64.95;96757.19;5094237;28;20031;-66
2022/02/24 01:08:39;;;;;;;7.90;1.95;;;;;;;4.20;64.33;96756.34;5094177;28;20016;-66
2022/02/24 01:11:05;;;;;;;2.75;2.30;;;;;;;4.21;64.56;96752.91;5094273;28;20359;-66
2022/02/24 01:13:30;;;;;;;3.90;2.20;;;;;;;4.22;63.39;96747.72;5094147;28;20020;-66
2022/02/24 01:15:56;;;;;;;3.05;2.50;;;;;;;4.22;63.45;96758.06;5094179;28;20107;-65
2022/02/24 01:18:22;;;;;;;6.25;3.00;;;;;;;4.26;63.23;96758.88;5094133;28;20031;-65
2022/02/24 01:20:47;;;;;;;3.60;2.45;;;;;;;4.31;63.44;96744.16;5093560;28;20051;-67
2022/02/24 01:23:13;;;;;;;3.83;2.22;;;;;;;4.30;63.02;96755.38;5093780;28;20028;-66
2022/02/24 01:25:39;;;;;;;7.10;2.50;;;;;;;4.35;62.86;96758.78;5093988;28;20035;-69
2022/02/24 01:28:05;;;;;;;2.97;2.38;;;;;;;4.37;63.08;96759.63;5093787;28;20378;-66
2022/02/24 01:30:31;;;;;;;3.45;2.67;;;;;;;4.42;62.79;96757.00;5093918;28;20381;-66
2022/02/24 01:32:56;;;;;;;3.75;2.17;;;;;;;4.47;63.14;96762.13;5093806;28;20025;-67
2022/02/24 01:35:22;;;;;;;2.55;2.30;;;;;;;4.52;62.59;96760.38;5093754;28;20210;-67
2022/02/24 01:37:48;;;;;;;3.90;2.28;;;;;;;4.53;62.66;96759.47;5093653;28;20020;-67
2022/02/24 01:40:15;;;;;;;2.42;2.20;;;;;;;4.54;63.05;96758.59;5093672;28;20020;-66
2022/02/24 01:42:42;;;;;;;2.20;2.00;;;;;;;4.59;62.65;96768.91;5093779;28;20032;-67
2022/02/24 01:45:10;;;;;;;2.83;2.22;;;;;;;4.59;63.19;96766.31;5093540;28;20539;-66
2022/02/24 01:47:36;;;;;;;1.90;1.73;;;;;;;4.47;63.73;96767.31;5093723;28;20020;-66
2022/02/24 01:50:04;;;;;;;1.88;1.70;;;;;;;4.46;64.03;96758.69;5093556;28;20019;-66
2022/02/24 01:52:30;;;;;;;1.70;1.58;;;;;;;4.48;63.71;96759.53;5093429;28;20035;-66
2022/02/24 01:54:55;;;;;;;1.50;1.40;;;;;;;4.42;64.07;96757.00;5093384;28;20028;-67
2022/02/24 01:57:22;;;;;;;1.27;0.90;;;;;;;4.38;63.98;96758.78;5093535;28;20049;-67
2022/02/24 01:59:48;;;;;;;2.67;2.15;;;;;;;4.45;63.75;96764.72;5093450;28;20039;-66
2022/02/24 02:02:14;;;;;;;1.52;1.00;;;;;;;4.34;63.67;96769.16;5093380;28;20020;-66
2022/02/24 02:04:40;;;;;;;2.63;1.38;;;;;;;4.32;64.25;96763.13;5093424;28;20089;-67
2022/02/24 02:07:06;;;;;;;1.02;0.98;;;;;;;4.36;63.33;96762.25;5093311;28;20490;-67
2022/02/24 02:09:32;;;;;;;1.00;0.80;;;;;;;4.38;63.45;96758.78;5093240;28;20072;-66
2022/02/24 02:11:58;;;;;;;1.10;1.00;;;;;;;4.34;63.61;96756.22;5093252;28;20036;-65
2022/02/24 02:14:23;;;;;;;1.92;1.20;;;;;;;4.37;63.36;96761.38;5093109;28;20110;-67
2022/02/24 02:16:51;;;;;;;0.80;0.80;;;;;;;4.38;63.81;96770.84;5093265;28;20461;-67
2022/02/24 02:19:18;;;;;;;0.70;0.70;;;;;;;4.40;64.11;96767.38;5092779;28;20020;-67
2022/02/24 02:21:45;;;;;;;0.80;0.70;;;;;;;4.28;63.44;96767.50;5093266;28;20016;-66
2022/02/24 02:24:11;;;;;;;0.70;0.70;;;;;;;4.29;63.52;96767.50;5093341;28;20021;-66
2022/02/24 02:26:37;;;;;;;0.68;0.68;;;;;;;4.29;63.54;96774.41;5093063;28;20036;-66
2022/02/24 02:29:08;;;;;;;0.65;0.60;;;;;;;4.34;63.50;96776.94;5092950;28;20024;-67
2022/02/24 02:31:33;;;;;;;;;;;;;;;4.26;63.57;96775.28;5093608;28;20051;-67
2022/02/24 02:34:07;;;;;;;0.60;0.60;;;;;;;4.24;63.50;96783.94;5096234;28;19966;-66
2022/02/24 02:36:36;;;;;;;0.70;0.70;;;;;;;4.28;63.47;96780.47;5097390;28;20122;-67
2022/02/24 02:39:04;;;;;;;1.05;0.70;;;;;;;4.21;63.83;96779.63;5097233;28;20535;-67
2022/02/24 02:41:30;;;;;;;0.80;0.80;;;;;;;4.25;63.55;96783.91;5097103;28;20542;-67
2022/02/24 02:43:57;;;;;;;0.88;0.80;;;;;;;4.28;63.62;96785.63;5097118;28;20095;-66
2022/02/24 02:46:23;;;;;;;0.77;0.60;;;;;;;4.23;62.86;96777.91;5097019;28;20122;-66
2022/02/24 02:48:49;;;;;;;0.50;0.50;;;;;;;4.21;62.64;96784.81;5096883;28;20019;-65
2022/02/24 02:51:14;;;;;;;0.40;0.40;;;;;;;4.17;62.61;96775.34;5078778;28;20031;-65
2022/02/24 02:53:40;;;;;;;0.60;0.50;;;;;;;4.15;62.63;96787.44;5096777;28;20420;-66
2022/02/24 02:56:06;;;;;;;0.70;0.70;;;;;;;4.10;62.74;96786.66;5096940;28;20466;-67
2022/02/24 02:58:31;;;;;;;0.70;0.70;;;;;;;4.10;62.83;96771.09;5096945;28;20063;-66
2022/02/24 03:00:57;;;;;;;0.45;0.45;;;;;;;4.08;63.02;96771.13;5096848;28;20446;-66
2022/02/24 03:03:24;;;;;;;0.50;0.50;;;;;;;4.13;63.14;96763.31;5096550;28;20518;-66
2022/02/24 03:05:54;;;;;;;0.55;0.52;;;;;;;4.06;63.08;96765.09;5096740;28;20020;-66
2022/02/24 03:08:21;;;;;;;0.60;0.60;;;;;;;4.11;63.57;96772.81;5096588;28;20030;-66
2022/02/24 03:10:47;;;;;;;0.50;0.50;;;;;;;4.04;63.58;96774.63;5096575;28;20482;-65
2022/02/24 03:13:13;;;;;;;0.52;0.50;;;;;;;3.97;63.49;96771.19;5096457;28;20058;-66
2022/02/24 03:15:39;;;;;;;0.57;0.57;;;;;;;4.00;64.18;96788.47;5096373;28;20543;-66
2022/02/24 03:18:05;;;;;;;0.40;0.40;;;;;;;3.98;63.75;96783.28;5096300;28;20016;-67
2022/02/24 03:20:32;;;;;;;0.75;0.60;;;;;;;3.99;63.82;96778.97;5096072;28;20036;-67
2022/02/24 03:22:59;;;;;;;2.10;0.70;;;;;;;4.08;63.43;96789.25;5096400;28;20527;-67
2022/02/24 03:25:24;;;;;;;0.80;0.63;;;;;;;4.02;63.67;96784.97;5096283;28;20028;-67
2022/02/24 03:27:50;;;;;;;0.85;0.68;;;;;;;4.02;63.83;96773.75;5096306;28;20377;-66
2022/02/24 03:30:15;;;;;;;0.60;0.60;;;;;;;4.02;64.06;96772.03;5096282;28;20027;-67
2022/02/24 03:32:43;;;;;;;0.60;0.60;;;;;;;4.04;63.78;96772.88;5096147;28;20028;-67
2022/02/24 03:35:10;;;;;;;1.98;0.68;;;;;;;4.12;63.61;96770.22;5096030;28;20030;-66
2022/02/24 03:37:35;;;;;;;1.25;1.05;;;;;;;4.03;63.43;96773.75;5096082;28;20054;-66
2022/02/24 03:40:02;;;;;;;0.70;0.70;;;;;;;3.99;63.65;96764.28;5095964;28;20050;-67
2022/02/24 03:42:28;;;;;;;1.05;0.90;;;;;;;4.02;63.39;96778.94;5096063;28;20023;-67
2022/02/24 03:44:55;;;;;;;1.23;1.00;;;;;;;4.00;63.19;96786.72;5095389;28;20031;-67
2022/02/24 03:47:22;;;;;;;1.50;1.15;;;;;;;3.89;63.69;96779.00;5096016;28;20032;-67
2022/02/24 03:49:48;;;;;;;1.75;1.30;;;;;;;3.88;63.52;96779.03;5095858;28;20024;-67
2022/02/24 03:52:15;;;;;;;3.10;1.23;;;;;;;3.89;63.23;96783.34;5095796;28;20035;-66
2022/02/24 03:54:41;;;;;;;1.15;1.10;;;;;;;3.95;63.78;96777.25;5095564;28;20039;-67
2022/02/24 03:57:06;;;;;;;1.30;1.20;;;;;;;3.90;63.58;96778.16;5095651;28;20020;-67
2022/02/24 03:59:32;;;;;;;1.83;1.20;;;;;;;3.88;62.54;96768.69;5095654;28;20091;-66
2022/02/24 04:01:58;;;;;;;1.60;1.02;;;;;;;3.90;62.62;96777.31;5095580;28;20046;-66
2022/02/24 04:04:24;;;;;;;2.72;1.27;;;;;;;3.86;62.70;96778.19;5095501;28;20024;-66
2022/02/24 04:06:49;;;;;;;1.20;1.10;;;;;;;3.89;62.88;96776.44;5095484;28;20020;-67
2022/02/24 04:09:15;;;;;;;1.27;1.17;;;;;;;3.84;63.04;96773.03;5095340;28;20513;-67
2022/02/24 04:11:40;;;;;;;1.20;1.10;;;;;;;3.80;63.05;96766.16;5095381;28;20017;-66
2022/02/24 04:14:06;;;;;;;1.35;0.95;;;;;;;3.79;63.61;96774.78;5095324;28;20028;-66
2022/02/24 04:16:32;;;;;;;2.85;1.40;;;;;;;3.71;63.87;96772.28;5095150;28;20103;-67
2022/02/24 04:18:57;;;;;;;0.80;0.77;;;;;;;3.67;63.30;96779.19;5095249;28;20040;-68
2022/02/24 04:21:23;;;;;;;1.63;1.00;;;;;;;3.67;64.07;96784.34;5095051;28;20056;-67
2022/02/24 04:23:49;;;;;;;1.05;0.95;;;;;;;3.71;64.18;96768.81;5095223;28;20111;-66
2022/02/24 04:26:14;;;;;;;0.80;0.80;;;;;;;3.70;63.75;96767.09;5095039;28;20019;-67
2022/02/24 04:28:40;;;;;;;0.90;0.90;;;;;;;3.69;63.13;96774.00;5095051;28;20069;-67
2022/02/24 04:31:05;;;;;;;0.60;0.60;;;;;;;3.65;63.67;96775.72;5095064;28;20477;-66
2022/02/24 04:33:31;;;;;;;0.70;0.70;;;;;;;3.69;63.48;96770.53;5094747;28;20027;-65
2022/02/24 04:35:56;;;;;;;0.65;0.60;;;;;;;3.61;63.77;96773.22;5094952;28;20028;-67
2022/02/24 04:38:22;;;;;;;0.80;0.80;;;;;;;3.62;63.95;96774.91;5094739;28;20027;-68
2022/02/24 04:40:48;;;;;;;0.75;0.75;;;;;;;3.48;64.42;96773.28;5094823;28;20093;-67
2022/02/24 04:43:13;;;;;;;0.80;0.80;;;;;;;3.49;64.54;96766.38;5094773;28;20012;-67
2022/02/24 04:45:39;;;;;;;0.80;0.60;;;;;;;3.48;64.80;96778.44;5094781;28;20047;-67
2022/02/24 04:48:04;;;;;;;1.17;0.90;;;;;;;3.45;64.54;96773.28;5094774;28;20071;-66
2022/02/24 04:50:30;;;;;;;0.77;0.75;;;;;;;3.49;64.62;96780.16;5094619;28;20047;-67
2022/02/24 04:52:56;;;;;;;0.70;0.70;;;;;;;3.49;64.38;96779.31;5094701;28;20024;-67
2022/02/24 04:55:21;;;;;;;0.60;0.60;;;;;;;3.50;63.97;96779.31;5094216;28;20492;-67
2022/02/24 04:57:47;;;;;;;0.43;0.43;;;;;;;3.43;63.71;96774.16;5093639;28;20023;-67
2022/02/24 05:00:13;;;;;;;0.60;0.60;;;;;;;3.41;64.41;96787.13;5094384;28;20028;-68
2022/02/24 05:02:38;;;;;;;1.77;0.85;;;;;;;3.51;63.26;96800.84;5094430;28;20043;-67
2022/02/24 05:05:04;;;;;;;0.50;0.50;;;;;;;3.54;63.34;96813.75;5094265;28;20093;-67
2022/02/24 05:07:30;;;;;;;0.75;0.75;;;;;;;3.54;62.74;96812.03;5094403;28;20026;-68
2022/02/24 05:09:57;;;;;;;1.15;1.05;;;;;;;3.54;63.03;96819.81;5094355;28;20024;-67
2022/02/24 05:12:23;;;;;;;0.73;0.70;;;;;;;3.59;63.15;96819.78;5094355;28;20373;-67
2022/02/24 05:14:49;;;;;;;0.50;0.50;;;;;;;3.59;62.89;96824.97;5075952;28;20020;-67
2022/02/24 05:17:15;;;;;;;0.52;0.52;;;;;;;3.58;63.04;96835.31;5094105;28;20024;-67
2022/02/24 05:19:40;;;;;;;0.50;0.50;;;;;;;3.53;63.50;96823.25;5093872;28;20053;-67
2022/02/24 05:22:06;;;;;;;0.60;0.60;;;;;;;3.48;63.57;96822.41;5094127;28;20099;-67
2022/02/24 05:24:32;;;;;;;0.85;0.75;;;;;;;3.53;62.76;96840.50;5094067;28;20024;-66
2022/02/24 05:26:57;;;;;;;0.40;0.40;;;;;;;3.55;62.46;96849.09;5094003;28;20441;-67
2022/02/24 05:29:23;;;;;;;0.28;0.28;;;;;;;3.54;61.78;96849.97;5075789;28;20032;-68
2022/02/24 05:31:49;;;;;;;0.45;0.45;;;;;;;3.56;60.93;96863.78;5093973;28;20103;-66
2022/02/24 05:34:14;;;;;;;0.50;0.50;;;;;;;3.59;61.67;96875.84;5093838;28;20052;-67
2022/02/24 05:36:40;;;;;;;0.40;0.40;;;;;;;3.73;60.51;96886.13;5093819;28;20024;-68
2022/02/24 05:39:06;;;;;;;0.40;0.40;;;;;;;3.69;61.12;96889.56;5093878;28;20535;-67
2022/02/24 05:41:31;;;;;;;0.43;0.40;;;;;;;3.60;61.76;96900.84;5093737;28;20051;-67
2022/02/24 05:43:57;;;;;;;0.40;0.40;;;;;;;3.63;62.08;96906.88;5093611;28;20497;-66
2022/02/24 05:46:22;;;;;;;0.57;0.40;;;;;;;3.58;62.44;96915.53;5093628;28;20112;-67
2022/02/24 05:48:48;;;;;;;0.50;0.50;;;;;;;3.56;62.53;96923.28;5093593;28;20031;-67
2022/02/24 05:51:14;;;;;;;0.52;0.38;;;;;;;3.51;63.13;96938.81;5093480;28;20112;-67
2022/02/24 05:53:39;;;;;;;0.30;0.30;;;;;;;3.44;63.95;96929.38;5093427;28;20027;-66
2022/02/24 05:56:05;;;;;;;0.40;0.40;;;;;;;3.48;64.35;96944.00;5093456;28;20027;-68
2022/02/24 05:58:31;;;;;;;0.70;0.47;;;;;;;3.47;64.34;96941.41;5093486;28;20114;-67
2022/02/24 06:00:57;;;;;;;0.68;0.52;;;;;;;3.34;65.22;96950.94;5093430;28;20451;-67
2022/02/24 06:03:23;;;;;;;0.45;0.40;;;;;;;3.37;64.98;96956.97;5093316;28;20060;-64
2022/02/24 06:05:51;;;;;;;0.50;0.50;;;;;;;3.38;65.58;96961.28;5093432;28;20020;-68
2022/02/24 06:08:17;;;;;;;0.30;0.30;;;;;;;3.41;65.37;96963.84;5093076;28;20032;-68
2022/02/24 06:10:42;;;;;;;0.40;0.40;;;;;;;3.37;65.05;96969.06;5093394;28;20043;-68
2022/02/24 06:13:08;;;;;;;0.50;0.50;;;;;;;3.24;65.77;96961.31;5093319;28;20501;-66
2022/02/24 06:15:34;;;;;;;0.60;0.60;;;;;;;3.10;66.33;96958.72;5093189;28;20081;-65
2022/02/24 06:18:06;;;;;;;1.58;0.60;;;;;;;3.17;66.65;96969.94;5093254;28;20012;-66
2022/02/24 06:20:31;;;;;;;0.50;0.50;;;;;;;3.36;65.80;96969.88;5092953;28;20126;-66
2022/02/24 06:22:57;;;;;;;0.52;0.52;;;;;;;3.52;65.36;96975.88;5093034;28;20158;-66
2022/02/24 06:25:22;;;;;;;0.80;0.70;;;;;;;3.45;65.90;96981.94;5093057;28;20107;-66
2022/02/24 06:27:48;;;;;;;1.00;0.52;;;;;;;3.32;66.17;96992.34;5093029;28;20020;-66
2022/02/24 06:30:13;;;;;;;0.50;0.50;;;;;;;3.33;66.64;96985.41;5093089;28;20082;-66
2022/02/24 06:32:41;;;;;;;0.70;0.70;;;;;;;3.38;66.55;96992.31;5092958;28;20016;-67
2022/02/24 06:35:08;;;;;;;1.17;0.73;;;;;;;3.41;67.14;96984.53;5092995;28;20028;-68
2022/02/24 06:37:33;;;;;;;0.63;0.63;;;;;;;3.34;66.87;96987.16;5093084;28;20028;-68
2022/02/24 06:39:59;;;;;;;1.35;0.73;;;;;;;3.16;67.64;97005.28;5093165;28;20065;-65
2022/02/24 06:42:25;;;;;;;0.95;0.88;;;;;;;3.16;68.40;97001.81;5093030;28;20035;-66
2022/02/24 06:44:50;;;;;;;1.27;1.08;;;;;;;3.11;68.56;97014.78;5092958;28;20075;-66
2022/02/24 06:47:16;;;;;;;2.20;1.30;;;;;;;3.01;69.24;97016.47;5092824;28;20024;-65
2022/02/24 06:49:43;;;;;;;1.35;1.00;;;;;;;2.95;69.47;97015.63;5092828;28;20085;-65
2022/02/24 06:52:09;;;;;;;1.77;1.40;;;;;;;2.90;69.70;97028.56;5092937;28;20458;-68
2022/02/24 06:54:34;;;;;;;1.42;1.17;;;;;;;2.84;69.99;97016.50;5092769;28;20045;-67
2022/02/24 06:57:01;;;;;;;2.08;1.63;;;;;;;2.80;70.26;97024.25;5092822;28;20055;-66
2022/02/24 06:59:27;;;;;;;1.95;1.80;;;;;;;2.83;70.41;97035.44;5092917;28;20020;-65
2022/02/24 07:01:53;;;;;;;2.47;1.98;;;;;;;2.80;69.90;97026.81;5074853;28;20028;-65
2022/02/24 07:04:19;;;;;;;3.35;1.90;;;;;;;2.76;69.94;97033.69;5092720;28;20020;-67
2022/02/24 07:06:47;;;;;;;2.63;2.05;;;;;;;2.75;70.42;97039.75;5092766;28;20422;-65
2022/02/24 07:09:13;;;;;;;3.00;2.50;;;;;;;2.79;70.66;97020.78;5092759;28;20145;-66
2022/02/24 07:11:38;;;;;;;4.03;2.80;;;;;;;2.81;70.83;97051.78;5092848;28;20014;-67
2022/02/24 07:14:04;;;;;;;4.38;2.58;;;;;;;2.79;70.81;97041.47;5092951;28;20426;-66
2022/02/24 07:16:32;;;;;;;3.20;2.58;;;;;;;2.78;71.07;97047.50;5092657;28;20111;-67
2022/02/24 07:18:57;;;;;;;4.13;2.40;;;;;;;2.82;71.13;97044.03;5092645;28;20039;-68
2022/02/24 07:21:23;;;;;;;3.38;2.33;;;;;;;2.83;70.85;97048.34;5096008;28;20043;-67
2022/02/24 07:23:49;;;;;;;3.03;2.50;;;;;;;2.87;70.47;97044.94;5096353;28;20134;-67
2022/02/24 07:26:14;;;;;;;3.40;2.65;;;;;;;2.86;70.58;97045.78;5096195;28;20020;-68
2022/02/24 07:28:43;;;;;;;4.32;3.05;;;;;;;2.88;70.56;97050.94;5096119;28;20497;-67
2022/02/24 07:31:09;;;;;;;4.47;2.90;;;;;;;2.95;70.67;97044.91;5096152;28;20047;-67
2022/02/24 07:33:35;;;;;;;2.72;2.17;;;;;;;3.05;70.06;97042.34;5095908;28;20028;-67
2022/02/24 07:36:00;;;;;;;3.33;2.72;;;;;;;3.08;70.74;97045.78;5095367;28;20028;-66
2022/02/24 07:38:26;;;;;;;4.97;2.60;;;;;;;3.10;70.32;97050.97;5095983;28;20030;-68
2022/02/24 07:40:51;;;;;;;3.22;2.92;;;;;;;3.20;70.23;97052.69;5078012;28;20016;-68
2022/02/24 07:43:17;;;;;;;3.50;2.38;;;;;;;3.30;69.76;97050.94;5095874;28;20343;-67
2022/02/24 07:45:42;;;;;;;5.88;2.75;;;;;;;3.31;69.36;97055.25;5096049;28;20021;-67
2022/02/24 07:48:08;;;;;;;4.43;2.70;;;;;;;3.29;69.70;97049.22;5095871;28;20028;-66
2022/02/24 07:50:34;;;;;;;4.13;2.80;;;;;;;3.24;69.74;97054.41;5095847;28;20020;-67
2022/02/24 07:53:01;;;;;;;3.10;2.80;;;;;;;3.24;69.64;97066.47;5095712;28;20386;-67
2022/02/24 07:55:28;;;;;;;3.10;2.80;;;;;;;3.19;69.88;97057.84;5095666;28;20028;-67
2022/02/24 07:57:53;;;;;;;8.10;2.90;;;;;;;3.22;69.70;97060.44;5095647;28;20028;-67
2022/02/24 08:00:19;;;;;;;5.65;3.50;;;;;;;3.17;69.92;97057.84;5095668;28;20140;-68
2022/02/24 08:02:45;;;;;;;10.27;3.15;;;;;;;3.21;70.16;97053.53;5095632;28;20031;-67
2022/02/24 08:05:12;;;;;;;3.85;2.80;;;;;;;3.23;69.84;97065.63;5095495;28;20052;-67
2022/02/24 08:07:38;;;;;;;5.97;3.22;;;;;;;3.31;69.06;97064.75;5077538;28;20058;-67
2022/02/24 08:10:06;;;;;;;2.92;2.63;;;;;;;3.29;69.96;97060.41;5095523;28;20099;-66
2022/02/24 08:12:44;;;;;;;5.90;3.42;;;;;;;3.22;69.47;97056.13;5095392;28;20110;-67
2022/02/24 08:15:14;;;;;;;9.77;2.67;;;;;;;3.31;69.15;97064.75;5095417;28;20028;-67
2022/02/24 08:17:41;;;;;;;3.22;2.70;;;;;;;3.36;69.39;97060.41;5095259;28;20046;-66
2022/02/24 08:20:07;;;;;;;3.15;2.40;;;;;;;3.47;69.51;97060.41;5095161;28;20048;-66
2022/02/24 08:22:38;;;;;;;3.97;2.60;;;;;;;3.54;68.51;97067.31;5095266;28;20024;-66
2022/02/24 08:25:06;;;;;;;2.85;2.20;;;;;;;3.61;67.42;97066.41;5095125;28;20026;-68
2022/02/24 08:27:34;;;;;;;2.60;2.17;;;;;;;3.54;67.38;97063.00;5095334;28;20415;-67
2022/02/24 08:30:02;;;;;;;3.15;1.80;;;;;;;3.52;67.24;97076.78;5094856;28;20132;-66
2022/02/24 08:32:29;;;;;;;2.33;1.60;;;;;;;3.51;66.54;97062.13;5094900;28;20047;-66
2022/02/24 08:34:56;;;;;;;2.67;1.70;;;;;;;3.56;66.65;97070.75;5095068;28;20530;-68
2022/02/24 08:37:22;;;;;;;3.50;1.77;;;;;;;3.54;65.98;97075.06;5095005;28;20047;-66
2022/02/24 08:39:47;;;;;;;3.00;2.22;;;;;;;3.56;65.72;97069.88;5094849;28;20035;-67
2022/02/24 08:42:13;;;;;;;2.90;2.30;;;;;;;3.67;65.90;97091.41;5094693;28;20016;-67
2022/02/24 08:44:43;;;;;;;2.78;2.30;;;;;;;3.66;64.92;97081.94;5094794;28;20039;-66
2022/02/24 08:47:10;;;;;;;4.50;1.90;;;;;;;3.66;65.03;97085.41;5094815;28;20035;-66
2022/02/24 08:49:36;;;;;;;5.07;2.00;;;;;;;3.68;65.09;97093.16;5094680;28;20056;-68
2022/02/24 08:52:01;;;;;;;3.97;2.22;;;;;;;3.64;65.43;97092.28;5094620;28;20020;-66
2022/02/24 08:54:27;;;;;;;2.85;2.22;;;;;;;3.69;64.91;97094.00;5094496;28;20020;-68
2022/02/24 08:56:52;;;;;;;3.67;2.47;;;;;;;3.66;64.73;97105.22;5094576;28;20024;-67
2022/02/24 08:59:18;;;;;;;3.22;2.13;;;;;;;3.56;64.62;97091.47;5094507;28;20355;-66
2022/02/24 09:01:44;;;;;;;3.72;2.33;;;;;;;3.58;64.98;97094.03;5094430;28;20079;-66
2022/02/24 09:04:10;;;;;;;4.40;2.30;;;;;;;3.62;64.77;97096.63;5094269;28;20039;-67
2022/02/24 09:06:35;;;;;;;6.60;2.55;;;;;;;3.63;64.78;97087.13;5094328;28;20381;-67
2022/02/24 09:09:01;;;;;;;3.28;2.22;;;;;;;3.69;64.76;97091.41;5094288;28;20032;-67
2022/02/24 09:11:27;;;;;;;3.22;2.33;;;;;;;3.76;64.31;97098.31;5094244;28;20024;-67
2022/02/24 09:13:52;;;;;;;4.50;2.40;;;;;;;3.69;64.73;97087.13;5094173;28;20439;-66
2022/02/24 09:16:18;;;;;;;2.92;1.90;;;;;;;3.69;64.65;97087.13;5076019;28;20024;-66
2022/02/24 09:18:44;;;;;;;3.33;2.28;;;;;;;3.73;64.25;97090.56;5094042;28;20042;-67
2022/02/24 09:21:09;;;;;;;5.20;2.80;;;;;;;3.80;64.43;97089.69;5093842;28;20508;-66
2022/02/24 09:23:35;;;;;;;2.88;2.00;;;;;;;3.86;63.34;97089.69;5094047;28;20049;-66
2022/02/24 09:26:00;;;;;;;3.28;2.40;;;;;;;3.84;64.28;97096.56;5093924;28;20085;-67
2022/02/24 09:28:26;;;;;;;3.45;2.00;;;;;;;3.91;63.88;97097.41;5094000;28;20076;-67
2022/02/24 09:30:52;;;;;;;4.40;2.60;;;;;;;3.88;63.88;97084.47;5093971;28;20107;-67
2022/02/24 09:33:17;;;;;;;5.78;2.30;;;;;;;3.77;64.10;97084.53;5093799;28;20531;-67
2022/02/24 09:35:43;;;;;;;5.95;2.80;;;;;;;3.71;64.02;97093.16;5093738;28;20044;-68
2022/02/24 09:38:09;;;;;;;2.80;2.20;;;;;;;3.77;64.76;97095.72;5093763;28;20047;-66
2022/02/24 09:40:34;;;;;;;4.10;2.40;;;;;;;3.69;64.36;97089.72;5093696;28;20104;-67
2022/02/24 09:43:03;;;;;;;7.07;2.67;;;;;;;3.74;64.67;97085.41;5075143;28;20035;-68
2022/02/24 09:45:28;;;;;;;4.47;2.60;;;;;;;3.66;64.65;97085.41;5093677;28;20401;-66
2022/02/24 09:47:55;;;;;;;4.97;2.08;;;;;;;3.76;64.76;97085.38;5093664;28;20054;-67
2022/02/24 09:50:23;;;;;;;4.45;2.40;;;;;;;3.66;65.40;97082.81;5093594;28;20072;-67
2022/02/24 09:52:49;;;;;;;4.50;2.30;;;;;;;3.75;65.65;97083.66;5093438;28;20050;-67
2022/02/24 09:55:14;;;;;;;4.82;2.47;;;;;;;3.82;65.59;97084.50;5093324;28;20393;-66
2022/02/24 09:57:40;;;;;;;4.90;2.75;;;;;;;3.81;65.82;97091.41;5093354;28;20062;-67
2022/02/24 10:00:07;;;;;;;5.05;2.38;;;;;;;3.86;66.05;97081.03;5093322;28;20020;-66
2022/02/24 10:02:32;;;;;;;6.95;2.80;;;;;;;3.72;65.70;97087.13;5093362;28;20405;-67
2022/02/24 10:05:11;;;;;;;6.82;2.30;;;;;;;3.68;66.02;97090.59;5093518;28;20023;-66
2022/02/24 10:07:40;;;;;;;4.07;2.60;;;;;;;3.75;66.50;97081.06;5093270;28;20028;-66
2022/02/24 10:10:33;;;;;;;4.85;2.30;;;;;;;3.85;66.06;97087.09;5093181;28;20386;-68
2022/02/24 10:13:09;;;;;;;4.55;2.78;;;;;;;3.97;65.35;97081.88;5089720;28;20051;-66
2022/02/24 10:15:52;;;;;;;7.35;2.45;;;;;;;4.06;64.09;97086.16;5093295;28;20030;-66
2022/02/24 10:18:19;;;;;;;4.20;2.55;;;;;;;4.09;63.25;97083.56;5093401;28;20051;-67
2022/02/24 10:20:49;;;;;;;7.28;2.38;;;;;;;4.11;62.62;97084.44;5093147;28;20543;-68
2022/02/24 10:23:16;;;;;;;6.43;2.35;;;;;;;4.16;62.37;97079.22;5093288;28;20020;-67
2022/02/24 10:25:50;;;;;;;3.95;2.00;;;;;;;4.16;62.75;97084.41;5093099;28;20028;-67
2022/02/24 10:28:53;;;;;;;5.68;2.22;;;;;;;4.15;61.91;97086.13;5093088;28;20016;-66
2022/02/24 10:31:28;;;;;;;3.08;2.33;;;;;;;4.22;62.11;97084.41;5092796;28;20118;-66
2022/02/24 10:34:17;;;;;;;4.00;2.17;;;;;;;4.29;63.24;97080.91;5092949;28;20020;-66
2022/02/24 10:36:43;;;;;;;7.53;2.83;;;;;;;4.23;61.48;97082.66;5092962;28;20036;-67
2022/02/24 10:39:11;;;;;;;5.15;2.47;;;;;;;4.15;61.29;97080.06;5075208;28;20028;-66
2022/02/24 10:41:37;;;;;;;5.82;2.42;;;;;;;4.08;61.17;97084.44;5092917;28;20028;-68
2022/02/24 10:44:11;;;;;;;5.45;2.30;;;;;;;4.14;61.47;97079.25;5093004;28;20038;-66
2022/02/24 10:46:37;;;;;;;4.65;2.17;;;;;;;4.11;62.16;97068.00;5092844;28;20032;-66
2022/02/24 10:49:03;;;;;;;5.30;2.17;;;;;;;4.23;61.82;97072.28;5093104;28;20023;-66
2022/02/24 10:51:34;;;;;;;4.10;2.08;;;;;;;4.28;62.10;97073.97;5092900;28;20462;-67
2022/02/24 10:54:11;;;;;;;10.13;2.30;;;;;;;4.25;61.40;97074.00;5092777;28;20450;-67
2022/02/24 10:56:42;;;;;;;4.40;2.40;;;;;;;4.28;61.15;97071.38;5096774;28;20474;-67
2022/02/24 10:59:09;;;;;;;5.35;2.50;;;;;;;4.19;61.54;97075.75;5096792;28;20035;-66
2022/02/24 11:01:35;;;;;;;3.45;2.38;;;;;;;4.14;60.63;97075.78;5096824;28;20055;-67
2022/02/24 11:04:06;;;;;;;5.03;2.70;;;;;;;4.09;61.46;97083.56;5096789;28;20111;-67
2022/02/24 11:06:36;;;;;;;8.30;3.10;;;;;;;4.07;61.23;97081.84;5096794;28;20024;-67
2022/02/24 11:09:04;;;;;;;3.90;2.17;;;;;;;4.08;61.79;97078.38;5096629;28;20054;-67
2022/02/24 11:11:32;;;;;;;5.20;2.42;;;;;;;4.15;61.62;97080.06;5096447;28;20035;-68
2022/02/24 11:13:59;;;;;;;7.85;4.22;;;;;;;4.10;61.08;97079.25;5096516;28;20085;-66
2022/02/24 11:16:25;;;;;;;4.45;2.67;;;;;;;4.12;61.07;97072.34;5078225;28;20027;-67
2022/02/24 11:18:52;;;;;;;5.53;2.95;;;;;;;4.12;61.11;97069.75;5096389;28;20103;-67
2022/02/24 11:21:19;;;;;;;7.30;2.83;;;;;;;4.25;61.26;97071.41;5096180;28;20512;-67
2022/02/24 11:23:47;;;;;;;4.50;2.65;;;;;;;4.37;60.37;97057.53;5096325;28;20107;-67
2022/02/24 11:26:24;;;;;;;3.63;2.50;;;;;;;4.43;59.60;97078.22;5096262;28;20378;-67
2022/02/24 11:29:18;;;;;;;5.28;2.22;;;;;;;4.43;58.87;97073.06;5096281;28;20496;-66
2022/02/24 11:31:44;;;;;;;5.07;2.45;;;;;;;4.45;58.91;97074.78;5041246;28;20419;-67
2022/02/24 11:34:10;;;;;;;5.78;2.50;;;;;;;4.46;59.02;97071.31;5096123;28;20032;-67
2022/02/24 11:36:46;;;;;;;4.35;2.28;;;;;;;4.55;59.33;97063.50;5096170;28;20028;-68
2022/02/24 11:39:17;;;;;;;4.75;2.25;;;;;;;4.66;59.02;97076.38;5096114;28;20024;-67